sensor_id;sensor_type;location;lat;lon;timestamp;P1;durP1;ratioP1;P2;durP2;ratioP2
1753;SDS011;58380;48.312;9.246;2024-01-30T07:45:37;14.50;;;7.00;;
1753;SDS011;58380;48.312;9.246;2024-01-30T07:48:38;15.18;;;6.63;;
1753;SDS011;58380;48.312;9.246;2024-01-30T07:51:38;15.45;;;6.70;;
1753;SDS011;58380;48.312;9.246;2024-01-30T07:54:39;13.73;;;6.35;;
1753;SDS011;58380;48.312;9.246;2024-01-30T07:57:40;13.38;;;5.82;;
1753;SDS011;58380;48.312;9.246;2024-01-30T08:00:40;14.40;;;6.70;;
1753;SDS011;58380;48.312;9.246;2024-01-30T08:03:41;13.32;;;6.43;;
1753;SDS011;58380;48.312;9.246;2024-01-30T08:06:41;13.10;;;6.78;;
1753;SDS011;58380;48.312;9.246;2024-01-30T08:09:42;10.95;;;5.72;;
1753;SDS011;58380;48.312;9.246;2024-01-30T08:12:43;14.48;;;6.28;;
1753;SDS011;58380;48.312;9.246;2024-01-30T08:15:43;14.77;;;6.00;;
1753;SDS011;58380;48.312;9.246;2024-01-30T08:18:43;12.55;;;6.05;;
1753;SDS011;58380;48.312;9.246;2024-01-30T08:21:44;13.30;;;7.07;;
1753;SDS011;58380;48.312;9.246;2024-01-30T08:24:44;17.27;;;9.10;;
1753;SDS011;58380;48.312;9.246;2024-01-30T08:27:45;19.30;;;9.75;;
1753;SDS011;58380;48.312;9.246;2024-01-30T08:30:45;25.13;;;11.68;;
1753;SDS011;58380;48.312;9.246;2024-01-30T08:33:46;32.85;;;15.80;;
1753;SDS011;58380;48.312;9.246;2024-01-30T08:36:46;37.08;;;17.30;;
1753;SDS011;58380;48.312;9.246;2024-01-30T08:39:46;39.67;;;19.75;;
1753;SDS011;58380;48.312;9.246;2024-01-30T08:42:47;40.83;;;22.00;;
1753;SDS011;58380;48.312;9.246;2024-01-30T08:45:47;47.70;;;24.50;;
1753;SDS011;58380;48.312;9.246;2024-01-30T08:48:48;51.08;;;24.55;;
1753;SDS011;58380;48.312;9.246;2024-01-30T08:51:48;56.58;;;28.13;;
1753;SDS011;58380;48.312;9.246;2024-01-30T08:54:50;52.33;;;26.65;;
1753;SDS011;58380;48.312;9.246;2024-01-30T08:57:50;44.60;;;22.25;;
1753;SDS011;58380;48.312;9.246;2024-01-30T09:00:52;37.58;;;19.20;;
1753;SDS011;58380;48.312;9.246;2024-01-30T09:03:52;33.83;;;17.33;;
1753;SDS011;58380;48.312;9.246;2024-01-30T09:06:53;25.05;;;14.18;;
1753;SDS011;58380;48.312;9.246;2024-01-30T09:09:53;29.38;;;16.52;;
1753;SDS011;58380;48.312;9.246;2024-01-30T09:12:54;27.42;;;15.70;;
1753;SDS011;58380;48.312;9.246;2024-01-30T09:15:54;26.60;;;15.18;;
1753;SDS011;58380;48.312;9.246;2024-01-30T09:18:55;20.88;;;12.48;;
1753;SDS011;58380;48.312;9.246;2024-01-30T09:21:56;18.73;;;11.73;;
1753;SDS011;58380;48.312;9.246;2024-01-30T09:24:56;16.55;;;10.05;;
1753;SDS011;58380;48.312;9.246;2024-01-30T09:27:57;12.35;;;8.45;;
1753;SDS011;58380;48.312;9.246;2024-01-30T09:31:01;15.18;;;8.60;;
1753;SDS011;58380;48.312;9.246;2024-01-30T09:34:02;13.95;;;8.65;;
1753;SDS011;58380;48.312;9.246;2024-01-30T09:37:03;14.48;;;8.48;;
1753;SDS011;58380;48.312;9.246;2024-01-30T09:40:03;15.40;;;9.00;;
1753;SDS011;58380;48.312;9.246;2024-01-30T09:43:05;26.48;;;14.38;;
1753;SDS011;58380;48.312;9.246;2024-01-30T09:46:05;21.67;;;12.65;;
1753;SDS011;58380;48.312;9.246;2024-01-30T09:49:13;22.73;;;13.38;;
1753;SDS011;58380;48.312;9.246;2024-01-30T09:52:14;17.35;;;11.10;;
1753;SDS011;58380;48.312;9.246;2024-01-30T09:55:15;13.50;;;9.30;;
1753;SDS011;58380;48.312;9.246;2024-01-30T09:58:15;14.93;;;9.73;;
1753;SDS011;58380;48.312;9.246;2024-01-30T10:01:17;13.02;;;9.25;;
1753;SDS011;58380;48.312;9.246;2024-01-30T10:04:19;15.02;;;9.43;;
1753;SDS011;58380;48.312;9.246;2024-01-30T10:07:19;16.52;;;9.98;;
1753;SDS011;58380;48.312;9.246;2024-01-30T10:10:21;15.65;;;9.90;;
1753;SDS011;58380;48.312;9.246;2024-01-30T10:13:25;12.63;;;8.05;;
1753;SDS011;58380;48.312;9.246;2024-01-30T10:16:25;14.07;;;8.18;;
1753;SDS011;58380;48.312;9.246;2024-01-30T10:19:26;14.48;;;9.38;;
1753;SDS011;58380;48.312;9.246;2024-01-30T10:22:26;13.13;;;8.13;;
1753;SDS011;58380;48.312;9.246;2024-01-30T10:25:27;15.48;;;8.25;;
1753;SDS011;58380;48.312;9.246;2024-01-30T10:28:27;14.02;;;8.68;;
1753;SDS011;58380;48.312;9.246;2024-01-30T10:31:30;12.55;;;7.70;;
1753;SDS011;58380;48.312;9.246;2024-01-30T10:34:31;11.77;;;7.43;;
1753;SDS011;58380;48.312;9.246;2024-01-30T10:37:32;11.93;;;7.53;;
1753;SDS011;58380;48.312;9.246;2024-01-30T10:40:33;12.10;;;6.85;;
1753;SDS011;58380;48.312;9.246;2024-01-30T10:43:35;10.38;;;6.80;;
1753;SDS011;58380;48.312;9.246;2024-01-30T10:46:41;10.80;;;6.00;;
1753;SDS011;58380;48.312;9.246;2024-01-30T10:49:50;11.52;;;6.45;;
1753;SDS011;58380;48.312;9.246;2024-01-30T10:52:52;14.00;;;7.38;;
1753;SDS011;58380;48.312;9.246;2024-01-30T10:55:55;15.35;;;8.88;;
1753;SDS011;58380;48.312;9.246;2024-01-30T10:58:59;18.52;;;8.05;;
1753;SDS011;58380;48.312;9.246;2024-01-30T11:02:00;11.95;;;6.80;;
1753;SDS011;58380;48.312;9.246;2024-01-30T11:05:01;14.75;;;7.80;;
1753;SDS011;58380;48.312;9.246;2024-01-30T11:08:14;11.13;;;6.63;;
1753;SDS011;58380;48.312;9.246;2024-01-30T11:11:16;11.18;;;6.43;;
1753;SDS011;58380;48.312;9.246;2024-01-30T11:14:16;14.30;;;6.25;;
1753;SDS011;58380;48.312;9.246;2024-01-30T11:17:27;8.90;;;4.90;;
1753;SDS011;58380;48.312;9.246;2024-01-30T11:20:29;9.35;;;4.20;;
1753;SDS011;58380;48.312;9.246;2024-01-30T11:23:35;10.53;;;4.47;;
1753;SDS011;58380;48.312;9.246;2024-01-30T11:26:36;7.50;;;4.18;;
1753;SDS011;58380;48.312;9.246;2024-01-30T11:29:37;16.25;;;4.22;;
1753;SDS011;58380;48.312;9.246;2024-01-30T11:32:40;4.30;;;2.33;;
1753;SDS011;58380;48.312;9.246;2024-01-30T11:35:44;5.32;;;2.72;;
1753;SDS011;58380;48.312;9.246;2024-01-30T11:38:45;4.15;;;2.35;;
1753;SDS011;58380;48.312;9.246;2024-01-30T11:41:46;3.92;;;2.55;;
1753;SDS011;58380;48.312;9.246;2024-01-30T11:44:51;4.40;;;2.10;;
1753;SDS011;58380;48.312;9.246;2024-01-30T11:47:52;7.25;;;3.25;;
1753;SDS011;58380;48.312;9.246;2024-01-30T11:50:53;6.00;;;3.00;;
1753;SDS011;58380;48.312;9.246;2024-01-30T11:53:54;4.95;;;3.03;;
1753;SDS011;58380;48.312;9.246;2024-01-30T11:56:54;5.10;;;2.60;;
1753;SDS011;58380;48.312;9.246;2024-01-30T11:59:55;7.90;;;3.50;;
1753;SDS011;58380;48.312;9.246;2024-01-30T12:02:55;8.15;;;4.07;;
1753;SDS011;58380;48.312;9.246;2024-01-30T12:05:56;8.27;;;3.80;;
1753;SDS011;58380;48.312;9.246;2024-01-30T12:09:02;8.45;;;4.50;;
1753;SDS011;58380;48.312;9.246;2024-01-30T12:12:10;10.38;;;3.80;;
1753;SDS011;58380;48.312;9.246;2024-01-30T12:15:12;6.50;;;2.67;;
1753;SDS011;58380;48.312;9.246;2024-01-30T12:18:13;5.82;;;3.30;;
1753;SDS011;58380;48.312;9.246;2024-01-30T12:21:16;4.47;;;3.10;;
1753;SDS011;58380;48.312;9.246;2024-01-30T12:24:18;11.32;;;5.32;;
1753;SDS011;58380;48.312;9.246;2024-01-30T12:27:18;10.05;;;5.25;;
1753;SDS011;58380;48.312;9.246;2024-01-30T12:30:19;8.27;;;3.40;;
1753;SDS011;58380;48.312;9.246;2024-01-30T12:33:20;10.80;;;4.05;;
1753;SDS011;58380;48.312;9.246;2024-01-30T12:36:22;10.13;;;5.40;;
1753;SDS011;58380;48.312;9.246;2024-01-30T12:39:23;7.38;;;3.60;;
1753;SDS011;58380;48.312;9.246;2024-01-30T12:42:23;10.45;;;3.67;;
1753;SDS011;58380;48.312;9.246;2024-01-30T12:45:24;12.25;;;6.55;;
1753;SDS011;58380;48.312;9.246;2024-01-30T12:48:25;13.50;;;6.15;;
1753;SDS011;58380;48.312;9.246;2024-01-30T12:51:27;9.25;;;4.32;;
1753;SDS011;58380;48.312;9.246;2024-01-30T12:54:27;7.90;;;3.80;;
1753;SDS011;58380;48.312;9.246;2024-01-30T12:57:28;17.95;;;9.50;;
1753;SDS011;58380;48.312;9.246;2024-01-30T13:00:28;11.27;;;5.53;;
1753;SDS011;58380;48.312;9.246;2024-01-30T13:03:28;13.90;;;6.32;;
1753;SDS011;58380;48.312;9.246;2024-01-30T13:06:29;11.15;;;5.53;;
1753;SDS011;58380;48.312;9.246;2024-01-30T13:09:29;20.38;;;8.88;;
1753;SDS011;58380;48.312;9.246;2024-01-30T13:12:31;16.80;;;7.47;;
1753;SDS011;58380;48.312;9.246;2024-01-30T13:15:33;7.18;;;4.35;;
1753;SDS011;58380;48.312;9.246;2024-01-30T13:18:33;11.88;;;4.28;;
1753;SDS011;58380;48.312;9.246;2024-01-30T13:21:34;7.53;;;4.78;;
1753;SDS011;58380;48.312;9.246;2024-01-30T13:24:34;14.32;;;6.63;;
1753;SDS011;58380;48.312;9.246;2024-01-30T13:27:35;8.70;;;4.30;;
1753;SDS011;58380;48.312;9.246;2024-01-30T13:30:37;8.55;;;3.83;;
1753;SDS011;58380;48.312;9.246;2024-01-30T13:33:37;8.82;;;4.10;;
1753;SDS011;58380;48.312;9.246;2024-01-30T13:36:38;12.00;;;5.00;;
1753;SDS011;58380;48.312;9.246;2024-01-30T13:39:38;10.55;;;6.15;;
1753;SDS011;58380;48.312;9.246;2024-01-30T13:42:39;7.50;;;4.55;;
1753;SDS011;58380;48.312;9.246;2024-01-30T13:45:40;8.75;;;5.22;;
1753;SDS011;58380;48.312;9.246;2024-01-30T13:48:42;10.75;;;6.20;;
1753;SDS011;58380;48.312;9.246;2024-01-30T13:51:42;18.20;;;6.53;;
1753;SDS011;58380;48.312;9.246;2024-01-30T13:54:43;12.85;;;7.22;;
1753;SDS011;58380;48.312;9.246;2024-01-30T13:57:43;12.15;;;6.50;;
1753;SDS011;58380;48.312;9.246;2024-01-30T14:00:46;18.00;;;9.23;;
1753;SDS011;58380;48.312;9.246;2024-01-30T14:03:47;13.23;;;6.88;;
1753;SDS011;58380;48.312;9.246;2024-01-30T14:06:47;19.98;;;9.48;;
1753;SDS011;58380;48.312;9.246;2024-01-30T14:09:48;24.63;;;11.40;;
1753;SDS011;58380;48.312;9.246;2024-01-30T14:12:49;9.32;;;5.00;;
1753;SDS011;58380;48.312;9.246;2024-01-30T14:15:49;18.30;;;7.00;;
1753;SDS011;58380;48.312;9.246;2024-01-30T14:18:50;22.45;;;13.70;;
1753;SDS011;58380;48.312;9.246;2024-01-30T14:21:50;14.40;;;7.50;;
1753;SDS011;58380;48.312;9.246;2024-01-30T14:24:51;15.70;;;7.85;;
1753;SDS011;58380;48.312;9.246;2024-01-30T14:27:51;15.90;;;8.35;;
1753;SDS011;58380;48.312;9.246;2024-01-30T14:30:52;17.80;;;9.93;;
1753;SDS011;58380;48.312;9.246;2024-01-30T14:33:52;16.60;;;8.73;;
1753;SDS011;58380;48.312;9.246;2024-01-30T14:36:55;13.27;;;7.28;;
1753;SDS011;58380;48.312;9.246;2024-01-30T14:39:55;10.85;;;6.63;;
1753;SDS011;58380;48.312;9.246;2024-01-30T14:42:56;13.82;;;6.75;;
1753;SDS011;58380;48.312;9.246;2024-01-30T14:45:56;14.98;;;7.22;;
1753;SDS011;58380;48.312;9.246;2024-01-30T14:48:58;15.35;;;7.05;;
1753;SDS011;58380;48.312;9.246;2024-01-30T14:51:59;19.95;;;10.00;;
1753;SDS011;58380;48.312;9.246;2024-01-30T14:55:00;19.13;;;9.50;;
1753;SDS011;58380;48.312;9.246;2024-01-30T14:58:01;11.88;;;7.00;;
1753;SDS011;58380;48.312;9.246;2024-01-30T15:01:02;11.10;;;6.13;;
1753;SDS011;58380;48.312;9.246;2024-01-30T15:04:03;11.73;;;6.43;;
1753;SDS011;58380;48.312;9.246;2024-01-30T15:07:03;14.05;;;6.38;;
1753;SDS011;58380;48.312;9.246;2024-01-30T15:10:04;11.25;;;6.00;;
1753;SDS011;58380;48.312;9.246;2024-01-30T15:13:04;14.30;;;5.90;;
1753;SDS011;58380;48.312;9.246;2024-01-30T15:16:05;11.02;;;6.32;;
1753;SDS011;58380;48.312;9.246;2024-01-30T15:19:06;11.73;;;5.88;;
1753;SDS011;58380;48.312;9.246;2024-01-30T15:22:06;53.28;;;21.95;;
1753;SDS011;58380;48.312;9.246;2024-01-30T15:25:07;58.85;;;25.08;;
1753;SDS011;58380;48.312;9.246;2024-01-30T15:28:07;66.20;;;27.92;;
1753;SDS011;58380;48.312;9.246;2024-01-30T15:31:09;49.15;;;22.38;;
1753;SDS011;58380;48.312;9.246;2024-01-30T15:34:10;37.65;;;14.57;;
1753;SDS011;58380;48.312;9.246;2024-01-30T15:37:10;31.63;;;15.75;;
1753;SDS011;58380;48.312;9.246;2024-01-30T15:40:10;24.17;;;12.20;;
1753;SDS011;58380;48.312;9.246;2024-01-30T15:43:11;16.95;;;9.40;;
1753;SDS011;58380;48.312;9.246;2024-01-30T15:46:11;17.38;;;9.27;;
1753;SDS011;58380;48.312;9.246;2024-01-30T15:49:12;18.63;;;10.88;;
1753;SDS011;58380;48.312;9.246;2024-01-30T15:52:12;18.73;;;9.98;;
1753;SDS011;58380;48.312;9.246;2024-01-30T15:55:15;19.15;;;9.15;;
1753;SDS011;58380;48.312;9.246;2024-01-30T15:58:16;12.65;;;8.02;;
1753;SDS011;58380;48.312;9.246;2024-01-30T16:01:16;14.60;;;8.40;;
1753;SDS011;58380;48.312;9.246;2024-01-30T16:04:17;12.68;;;7.25;;
1753;SDS011;58380;48.312;9.246;2024-01-30T16:07:17;14.90;;;6.63;;
1753;SDS011;58380;48.312;9.246;2024-01-30T16:10:17;16.92;;;7.07;;
1753;SDS011;58380;48.312;9.246;2024-01-30T16:13:18;15.27;;;7.38;;
1753;SDS011;58380;48.312;9.246;2024-01-30T16:16:19;17.33;;;8.27;;
1753;SDS011;58380;48.312;9.246;2024-01-30T16:19:20;22.35;;;9.02;;
1753;SDS011;58380;48.312;9.246;2024-01-30T16:22:20;23.73;;;10.07;;
1753;SDS011;58380;48.312;9.246;2024-01-30T16:25:21;18.83;;;8.05;;
1753;SDS011;58380;48.312;9.246;2024-01-30T16:28:26;16.83;;;7.90;;
1753;SDS011;58380;48.312;9.246;2024-01-30T16:31:26;27.02;;;10.05;;
1753;SDS011;58380;48.312;9.246;2024-01-30T16:34:27;14.52;;;7.10;;
1753;SDS011;58380;48.312;9.246;2024-01-30T16:37:27;18.63;;;8.20;;
1753;SDS011;58380;48.312;9.246;2024-01-30T16:40:28;18.33;;;8.10;;
1753;SDS011;58380;48.312;9.246;2024-01-30T16:43:28;23.13;;;9.77;;
1753;SDS011;58380;48.312;9.246;2024-01-30T16:46:28;27.65;;;10.98;;
1753;SDS011;58380;48.312;9.246;2024-01-30T16:49:29;24.55;;;9.13;;
1753;SDS011;58380;48.312;9.246;2024-01-30T16:52:29;15.38;;;7.10;;
1753;SDS011;58380;48.312;9.246;2024-01-30T16:55:30;22.23;;;9.10;;
1753;SDS011;58380;48.312;9.246;2024-01-30T16:58:30;26.67;;;10.57;;
1753;SDS011;58380;48.312;9.246;2024-01-30T17:01:30;30.25;;;11.57;;
1753;SDS011;58380;48.312;9.246;2024-01-30T17:04:31;28.23;;;12.55;;
1753;SDS011;58380;48.312;9.246;2024-01-30T17:07:33;29.30;;;12.82;;
1753;SDS011;58380;48.312;9.246;2024-01-30T17:10:35;21.83;;;10.35;;
1753;SDS011;58380;48.312;9.246;2024-01-30T17:13:35;18.73;;;9.30;;
1753;SDS011;58380;48.312;9.246;2024-01-30T17:16:36;21.13;;;9.80;;
1753;SDS011;58380;48.312;9.246;2024-01-30T17:19:37;29.00;;;13.50;;
1753;SDS011;58380;48.312;9.246;2024-01-30T17:22:37;34.45;;;15.70;;
1753;SDS011;58380;48.312;9.246;2024-01-30T17:25:38;37.42;;;17.75;;
1753;SDS011;58380;48.312;9.246;2024-01-30T17:28:39;45.13;;;19.85;;
1753;SDS011;58380;48.312;9.246;2024-01-30T17:31:39;36.10;;;18.58;;
1753;SDS011;58380;48.312;9.246;2024-01-30T17:34:40;34.03;;;18.75;;
1753;SDS011;58380;48.312;9.246;2024-01-30T17:37:41;35.58;;;18.27;;
1753;SDS011;58380;48.312;9.246;2024-01-30T17:40:42;38.47;;;20.77;;
1753;SDS011;58380;48.312;9.246;2024-01-30T17:43:42;40.05;;;20.05;;
1753;SDS011;58380;48.312;9.246;2024-01-30T17:46:42;35.25;;;19.88;;
1753;SDS011;58380;48.312;9.246;2024-01-30T17:49:43;40.15;;;20.75;;
1753;SDS011;58380;48.312;9.246;2024-01-30T17:52:43;34.35;;;18.13;;
1753;SDS011;58380;48.312;9.246;2024-01-30T17:55:44;32.08;;;18.08;;
1753;SDS011;58380;48.312;9.246;2024-01-30T17:58:44;35.78;;;20.30;;
1753;SDS011;58380;48.312;9.246;2024-01-30T18:01:48;33.90;;;18.15;;
1753;SDS011;58380;48.312;9.246;2024-01-30T18:04:48;36.85;;;20.75;;
1753;SDS011;58380;48.312;9.246;2024-01-30T18:07:49;39.05;;;21.02;;
1753;SDS011;58380;48.312;9.246;2024-01-30T18:10:49;53.58;;;27.13;;
1753;SDS011;58380;48.312;9.246;2024-01-30T18:13:50;50.47;;;25.98;;
1753;SDS011;58380;48.312;9.246;2024-01-30T18:16:51;52.83;;;26.17;;
1753;SDS011;58380;48.312;9.246;2024-01-30T18:19:52;39.70;;;21.55;;
1753;SDS011;58380;48.312;9.246;2024-01-30T18:22:52;45.13;;;23.60;;
1753;SDS011;58380;48.312;9.246;2024-01-30T18:25:52;51.47;;;29.52;;
1753;SDS011;58380;48.312;9.246;2024-01-30T18:28:59;46.92;;;25.83;;
1753;SDS011;58380;48.312;9.246;2024-01-30T18:32:00;52.20;;;30.40;;
1753;SDS011;58380;48.312;9.246;2024-01-30T18:35:01;45.72;;;24.98;;
1753;SDS011;58380;48.312;9.246;2024-01-30T18:38:02;46.00;;;25.95;;
1753;SDS011;58380;48.312;9.246;2024-01-30T18:41:03;35.65;;;22.08;;
1753;SDS011;58380;48.312;9.246;2024-01-30T18:44:03;38.22;;;23.65;;
1753;SDS011;58380;48.312;9.246;2024-01-30T18:47:04;40.03;;;24.88;;
1753;SDS011;58380;48.312;9.246;2024-01-30T18:50:05;38.15;;;23.55;;
1753;SDS011;58380;48.312;9.246;2024-01-30T18:53:06;40.13;;;23.40;;
1753;SDS011;58380;48.312;9.246;2024-01-30T18:56:06;35.55;;;21.55;;
1753;SDS011;58380;48.312;9.246;2024-01-30T18:59:07;28.45;;;17.25;;
1753;SDS011;58380;48.312;9.246;2024-01-30T19:02:08;26.88;;;14.10;;
1753;SDS011;58380;48.312;9.246;2024-01-30T19:05:08;23.30;;;14.40;;
1753;SDS011;58380;48.312;9.246;2024-01-30T19:08:09;25.55;;;14.93;;
1753;SDS011;58380;48.312;9.246;2024-01-30T19:11:17;25.45;;;16.60;;
1753;SDS011;58380;48.312;9.246;2024-01-30T19:17:19;24.00;;;13.93;;
1753;SDS011;58380;48.312;9.246;2024-01-30T19:20:20;25.02;;;13.77;;
1753;SDS011;58380;48.312;9.246;2024-01-30T19:23:22;26.55;;;16.65;;
1753;SDS011;58380;48.312;9.246;2024-01-30T19:26:23;30.58;;;18.10;;
1753;SDS011;58380;48.312;9.246;2024-01-30T19:29:23;28.10;;;17.25;;
1753;SDS011;58380;48.312;9.246;2024-01-30T19:32:27;36.03;;;21.13;;
1753;SDS011;58380;48.312;9.246;2024-01-30T19:35:27;32.75;;;19.95;;
1753;SDS011;58380;48.312;9.246;2024-01-30T19:38:27;33.35;;;19.52;;
1753;SDS011;58380;48.312;9.246;2024-01-30T19:41:28;31.02;;;18.38;;
1753;SDS011;58380;48.312;9.246;2024-01-30T19:44:28;31.92;;;19.98;;
1753;SDS011;58380;48.312;9.246;2024-01-30T19:47:29;34.40;;;18.95;;
1753;SDS011;58380;48.312;9.246;2024-01-30T19:50:29;35.45;;;20.30;;
1753;SDS011;58380;48.312;9.246;2024-01-30T19:53:30;35.78;;;21.17;;
1753;SDS011;58380;48.312;9.246;2024-01-30T19:56:36;35.63;;;20.00;;
1753;SDS011;58380;48.312;9.246;2024-01-30T19:59:51;42.03;;;23.27;;
1753;SDS011;58380;48.312;9.246;2024-01-30T20:02:54;48.70;;;25.70;;
1753;SDS011;58380;48.312;9.246;2024-01-30T20:05:54;44.95;;;25.83;;
1753;SDS011;58380;48.312;9.246;2024-01-30T20:08:56;44.22;;;24.60;;
1753;SDS011;58380;48.312;9.246;2024-01-30T20:11:57;41.72;;;23.75;;
1753;SDS011;58380;48.312;9.246;2024-01-30T20:14:57;45.47;;;24.58;;
1753;SDS011;58380;48.312;9.246;2024-01-30T20:17:58;40.25;;;23.23;;
1753;SDS011;58380;48.312;9.246;2024-01-30T20:21:01;44.17;;;24.65;;
1753;SDS011;58380;48.312;9.246;2024-01-30T20:24:03;42.13;;;23.27;;
1753;SDS011;58380;48.312;9.246;2024-01-30T20:27:04;35.58;;;20.95;;
1753;SDS011;58380;48.312;9.246;2024-01-30T20:30:06;37.85;;;22.15;;
1753;SDS011;58380;48.312;9.246;2024-01-30T20:33:13;37.60;;;20.30;;
1753;SDS011;58380;48.312;9.246;2024-01-30T20:36:15;36.55;;;21.33;;
1753;SDS011;58380;48.312;9.246;2024-01-30T20:39:17;29.55;;;18.23;;
1753;SDS011;58380;48.312;9.246;2024-01-30T20:42:17;29.15;;;18.17;;
1753;SDS011;58380;48.312;9.246;2024-01-30T20:45:18;31.90;;;18.10;;
1753;SDS011;58380;48.312;9.246;2024-01-30T20:48:19;31.80;;;19.20;;
1753;SDS011;58380;48.312;9.246;2024-01-30T20:51:20;31.15;;;18.75;;
1753;SDS011;58380;48.312;9.246;2024-01-30T20:54:21;57.17;;;25.60;;
1753;SDS011;58380;48.312;9.246;2024-01-30T20:57:21;29.80;;;16.15;;
1753;SDS011;58380;48.312;9.246;2024-01-30T21:00:21;27.40;;;15.30;;
1753;SDS011;58380;48.312;9.246;2024-01-30T21:03:22;25.95;;;14.88;;
1753;SDS011;58380;48.312;9.246;2024-01-30T21:06:22;23.08;;;12.50;;
1753;SDS011;58380;48.312;9.246;2024-01-30T21:09:23;18.38;;;9.70;;
1753;SDS011;58380;48.312;9.246;2024-01-30T21:12:23;19.60;;;10.57;;
1753;SDS011;58380;48.312;9.246;2024-01-30T21:15:24;21.63;;;10.85;;
1753;SDS011;58380;48.312;9.246;2024-01-30T21:18:24;22.27;;;12.88;;
1753;SDS011;58380;48.312;9.246;2024-01-30T21:21:25;24.20;;;13.02;;
1753;SDS011;58380;48.312;9.246;2024-01-30T21:24:25;22.55;;;12.60;;
1753;SDS011;58380;48.312;9.246;2024-01-30T21:27:26;18.83;;;11.02;;
1753;SDS011;58380;48.312;9.246;2024-01-30T21:30:26;16.40;;;9.90;;
1753;SDS011;58380;48.312;9.246;2024-01-30T21:33:27;17.05;;;10.57;;
1753;SDS011;58380;48.312;9.246;2024-01-30T21:36:28;19.63;;;9.50;;
1753;SDS011;58380;48.312;9.246;2024-01-30T21:39:28;16.58;;;10.38;;
1753;SDS011;58380;48.312;9.246;2024-01-30T21:42:29;21.80;;;10.77;;
1753;SDS011;58380;48.312;9.246;2024-01-30T21:45:30;21.90;;;11.68;;
1753;SDS011;58380;48.312;9.246;2024-01-30T21:48:30;18.52;;;11.07;;
1753;SDS011;58380;48.312;9.246;2024-01-30T21:51:31;20.48;;;12.23;;
1753;SDS011;58380;48.312;9.246;2024-01-30T21:54:31;19.42;;;10.73;;
1753;SDS011;58380;48.312;9.246;2024-01-30T21:57:32;27.70;;;13.52;;
1753;SDS011;58380;48.312;9.246;2024-01-30T22:00:32;23.58;;;13.70;;
1753;SDS011;58380;48.312;9.246;2024-01-30T22:03:33;25.02;;;13.25;;
1753;SDS011;58380;48.312;9.246;2024-01-30T22:06:33;23.25;;;13.10;;
1753;SDS011;58380;48.312;9.246;2024-01-30T22:09:35;20.70;;;12.10;;
1753;SDS011;58380;48.312;9.246;2024-01-30T22:12:35;15.43;;;9.45;;
1753;SDS011;58380;48.312;9.246;2024-01-30T22:15:37;17.67;;;9.50;;
1753;SDS011;58380;48.312;9.246;2024-01-30T22:18:39;14.32;;;8.82;;
